sensor_id;sensor_type;location;lat;lon;timestamp;pressure;altitude;pressure_sealevel;temperature;humidity
71149;BME280;59072;42.144;25.200;2023-04-08T00:00:11;100338.84;;;8.69;76.58
71149;BME280;59072;42.144;25.200;2023-04-08T00:02:37;100335.41;;;8.82;76.31
71149;BME280;59072;42.144;25.200;2023-04-08T00:05:02;100343.13;;;8.70;77.56
71149;BME280;59072;42.144;25.200;2023-04-08T00:07:28;100335.97;;;8.64;78.81
71149;BME280;59072;42.144;25.200;2023-04-08T00:09:53;100339.25;;;8.66;79.15
71149;BME280;59072;42.144;25.200;2023-04-08T00:12:18;100347.25;;;8.73;79.32
71149;BME280;59072;42.144;25.200;2023-04-08T00:14:44;100343.56;;;8.80;78.46
71149;BME280;59072;42.144;25.200;2023-04-08T00:17:10;100353.38;;;8.67;80.62
71149;BME280;59072;42.144;25.200;2023-04-08T00:19:35;100340.19;;;8.45;82.09
71149;BME280;59072;42.144;25.200;2023-04-08T00:22:01;100348.09;;;8.32;84.16
71149;BME280;59072;42.144;25.200;2023-04-08T00:24:26;100356.00;;;8.25;84.82
71149;BME280;59072;42.144;25.200;2023-04-08T00:26:51;100355.22;;;8.31;85.14
71149;BME280;59072;42.144;25.200;2023-04-08T00:29:17;100358.91;;;8.30;84.91
71149;BME280;59072;42.144;25.200;2023-04-08T00:31:42;100348.13;;;8.38;84.73
71149;BME280;59072;42.144;25.200;2023-04-08T00:34:08;100348.34;;;8.43;84.29
71149;BME280;59072;42.144;25.200;2023-04-08T00:36:33;100353.59;;;8.30;85.06
71149;BME280;59072;42.144;25.200;2023-04-08T00:39:00;100345.44;;;8.38;85.24
71149;BME280;59072;42.144;25.200;2023-04-08T00:41:26;100344.41;;;8.39;85.23
71149;BME280;59072;42.144;25.200;2023-04-08T00:43:51;100350.16;;;8.36;86.07
71149;BME280;59072;42.144;25.200;2023-04-08T00:46:17;100346.31;;;8.11;86.71
71149;BME280;59072;42.144;25.200;2023-04-08T00:48:42;100344.75;;;7.88;88.70
71149;BME280;59072;42.144;25.200;2023-04-08T00:51:08;100359.09;;;7.94;89.72
71149;BME280;59072;42.144;25.200;2023-04-08T00:53:34;100365.78;;;7.83;90.49
71149;BME280;59072;42.144;25.200;2023-04-08T00:55:59;100364.28;;;7.80;91.76
71149;BME280;59072;42.144;25.200;2023-04-08T00:58:26;100353.75;;;7.87;90.30
71149;BME280;59072;42.144;25.200;2023-04-08T01:01:06;100340.47;;;7.87;90.23
71149;BME280;59072;42.144;25.200;2023-04-08T01:06:15;100349.28;;;7.94;89.37
71149;BME280;59072;42.144;25.200;2023-04-08T01:08:43;100364.03;;;7.97;90.41
71149;BME280;59072;42.144;25.200;2023-04-08T01:11:11;100354.91;;;7.78;91.75
71149;BME280;59072;42.144;25.200;2023-04-08T01:13:40;100356.84;;;7.62;93.19
71149;BME280;59072;42.144;25.200;2023-04-08T01:16:12;100341.94;;;7.68;92.31
71149;BME280;59072;42.144;25.200;2023-04-08T01:18:39;100365.47;;;7.71;93.18
71149;BME280;59072;42.144;25.200;2023-04-08T01:21:06;100367.81;;;7.59;93.84
71149;BME280;59072;42.144;25.200;2023-04-08T01:23:45;100363.13;;;7.61;94.93
71149;BME280;59072;42.144;25.200;2023-04-08T01:26:20;100367.94;;;7.73;94.79
71149;BME280;59072;42.144;25.200;2023-04-08T01:28:48;100362.22;;;7.76;92.54
71149;BME280;59072;42.144;25.200;2023-04-08T01:31:15;100368.78;;;7.80;92.90
71149;BME280;59072;42.144;25.200;2023-04-08T01:33:42;100375.31;;;7.77;93.93
71149;BME280;59072;42.144;25.200;2023-04-08T01:36:09;100365.44;;;7.64;95.07
71149;BME280;59072;42.144;25.200;2023-04-08T01:38:35;100370.59;;;7.73;93.60
71149;BME280;59072;42.144;25.200;2023-04-08T01:41:02;100372.06;;;7.82;92.84
71149;BME280;59072;42.144;25.200;2023-04-08T01:43:28;100372.66;;;7.77;93.43
71149;BME280;59072;42.144;25.200;2023-04-08T01:45:57;100352.72;;;7.60;93.40
71149;BME280;59072;42.144;25.200;2023-04-08T01:48:23;100348.63;;;7.57;93.50
71149;BME280;59072;42.144;25.200;2023-04-08T01:50:49;100368.50;;;7.68;93.61
71149;BME280;59072;42.144;25.200;2023-04-08T01:53:16;100360.16;;;7.71;93.17
71149;BME280;59072;42.144;25.200;2023-04-08T01:55:42;100371.50;;;7.58;94.01
71149;BME280;59072;42.144;25.200;2023-04-08T01:58:11;100369.00;;;7.50;94.86
71149;BME280;59072;42.144;25.200;2023-04-08T02:00:40;100382.25;;;7.29;97.47
71149;BME280;59072;42.144;25.200;2023-04-08T02:03:08;100387.06;;;7.40;96.21
71149;BME280;59072;42.144;25.200;2023-04-08T02:05:36;100397.28;;;7.43;97.15
71149;BME280;59072;42.144;25.200;2023-04-08T02:08:01;100386.47;;;7.44;96.44
71149;BME280;59072;42.144;25.200;2023-04-08T02:10:27;100381.41;;;7.71;94.50
71149;BME280;59072;42.144;25.200;2023-04-08T02:12:52;100394.75;;;7.56;95.57
71149;BME280;59072;42.144;25.200;2023-04-08T02:15:18;100391.72;;;7.59;95.42
71149;BME280;59072;42.144;25.200;2023-04-08T02:18:15;100374.66;;;7.47;96.01
71149;BME280;59072;42.144;25.200;2023-04-08T02:20:47;100388.94;;;7.46;96.70
71149;BME280;59072;42.144;25.200;2023-04-08T02:23:21;100392.34;;;7.61;96.33
71149;BME280;59072;42.144;25.200;2023-04-08T02:25:48;100388.94;;;7.96;93.98
71149;BME280;59072;42.144;25.200;2023-04-08T02:28:16;100364.00;;;7.40;95.73
71149;BME280;59072;42.144;25.200;2023-04-08T02:30:46;100383.13;;;7.57;95.58
71149;BME280;59072;42.144;25.200;2023-04-08T02:33:13;100391.72;;;7.59;95.85
71149;BME280;59072;42.144;25.200;2023-04-08T02:35:40;100380.59;;;7.49;95.24
71149;BME280;59072;42.144;25.200;2023-04-08T02:38:06;100400.06;;;7.56;95.95
71149;BME280;59072;42.144;25.200;2023-04-08T02:40:32;100404.22;;;7.65;96.16
71149;BME280;59072;42.144;25.200;2023-04-08T02:42:59;100409.28;;;7.39;96.15
71149;BME280;59072;42.144;25.200;2023-04-08T02:45:51;100403.63;;;7.42;97.19
71149;BME280;59072;42.144;25.200;2023-04-08T02:48:17;100403.63;;;7.70;95.97
71149;BME280;59072;42.144;25.200;2023-04-08T02:50:42;100398.63;;;7.82;94.91
71149;BME280;59072;42.144;25.200;2023-04-08T02:53:08;100398.88;;;7.87;93.64
71149;BME280;59072;42.144;25.200;2023-04-08T02:55:33;100410.78;;;7.70;95.00
71149;BME280;59072;42.144;25.200;2023-04-08T02:57:59;100412.81;;;7.68;94.39
71149;BME280;59072;42.144;25.200;2023-04-08T03:00:25;100401.97;;;7.62;94.91
71149;BME280;59072;42.144;25.200;2023-04-08T03:02:50;100406.88;;;7.65;95.23
71149;BME280;59072;42.144;25.200;2023-04-08T03:05:15;100412.63;;;7.69;94.24
71149;BME280;59072;42.144;25.200;2023-04-08T03:07:41;100420.97;;;7.66;94.29
71149;BME280;59072;42.144;25.200;2023-04-08T03:10:07;100424.50;;;7.52;95.02
71149;BME280;59072;42.144;25.200;2023-04-08T03:12:33;100422.94;;;7.36;95.66
71149;BME280;59072;42.144;25.200;2023-04-08T03:14:58;100418.78;;;7.48;95.30
71149;BME280;59072;42.144;25.200;2023-04-08T03:17:24;100421.53;;;7.61;95.03
71149;BME280;59072;42.144;25.200;2023-04-08T03:19:49;100411.69;;;7.77;93.44
71149;BME280;59072;42.144;25.200;2023-04-08T03:22:15;100420.53;;;7.62;93.69
71149;BME280;59072;42.144;25.200;2023-04-08T03:24:40;100412.25;;;7.51;94.20
71149;BME280;59072;42.144;25.200;2023-04-08T03:27:06;100418.03;;;7.54;94.26
71149;BME280;59072;42.144;25.200;2023-04-08T03:29:32;100417.94;;;7.48;93.87
71149;BME280;59072;42.144;25.200;2023-04-08T03:31:58;100431.53;;;7.59;94.08
71149;BME280;59072;42.144;25.200;2023-04-08T03:34:23;100418.69;;;7.41;94.07
71149;BME280;59072;42.144;25.200;2023-04-08T03:36:49;100440.75;;;7.42;94.67
71149;BME280;59072;42.144;25.200;2023-04-08T03:39:14;100440.13;;;7.61;93.58
71149;BME280;59072;42.144;25.200;2023-04-08T03:41:40;100431.66;;;7.73;93.38
71149;BME280;59072;42.144;25.200;2023-04-08T03:44:05;100439.88;;;7.56;93.32
71149;BME280;59072;42.144;25.200;2023-04-08T03:46:30;100443.34;;;7.57;92.99
71149;BME280;59072;42.144;25.200;2023-04-08T03:48:56;100433.03;;;7.47;94.04
71149;BME280;59072;42.144;25.200;2023-04-08T03:51:21;100438.50;;;7.60;92.82
71149;BME280;59072;42.144;25.200;2023-04-08T03:53:47;100437.91;;;7.65;92.46
71149;BME280;59072;42.144;25.200;2023-04-08T03:56:13;100434.09;;;7.74;91.97
71149;BME280;59072;42.144;25.200;2023-04-08T03:58:39;100429.53;;;7.90;91.09
71149;BME280;59072;42.144;25.200;2023-04-08T04:01:04;100428.75;;;7.68;91.56
71149;BME280;59072;42.144;25.200;2023-04-08T04:03:30;100433.41;;;7.65;92.10
71149;BME280;59072;42.144;25.200;2023-04-08T04:05:55;100430.41;;;7.69;92.21
71149;BME280;59072;42.144;25.200;2023-04-08T04:08:21;100436.06;;;7.65;91.93
71149;BME280;59072;42.144;25.200;2023-04-08T04:10:46;100439.84;;;7.78;91.34
71149;BME280;59072;42.144;25.200;2023-04-08T04:13:12;100429.69;;;7.81;90.67
71149;BME280;59072;42.144;25.200;2023-04-08T04:15:40;100436.13;;;7.72;90.97
71149;BME280;59072;42.144;25.200;2023-04-08T04:18:06;100441.09;;;7.82;90.42
71149;BME280;59072;42.144;25.200;2023-04-08T04:20:32;100443.94;;;7.80;89.96
71149;BME280;59072;42.144;25.200;2023-04-08T04:22:57;100450.78;;;7.68;90.61
71149;BME280;59072;42.144;25.200;2023-04-08T04:25:23;100445.94;;;7.72;90.75
71149;BME280;59072;42.144;25.200;2023-04-08T04:27:48;100451.91;;;7.80;90.16
71149;BME280;59072;42.144;25.200;2023-04-08T04:30:15;100455.63;;;8.08;88.42
71149;BME280;59072;42.144;25.200;2023-04-08T04:32:41;100464.50;;;7.93;89.32
71149;BME280;59072;42.144;25.200;2023-04-08T04:35:11;100450.97;;;7.88;89.11
71149;BME280;59072;42.144;25.200;2023-04-08T04:37:36;100446.88;;;7.85;88.76
71149;BME280;59072;42.144;25.200;2023-04-08T04:40:05;100454.53;;;8.23;88.08
71149;BME280;59072;42.144;25.200;2023-04-08T04:42:31;100457.06;;;8.10;88.53
71149;BME280;59072;42.144;25.200;2023-04-08T04:44:57;100461.34;;;7.83;88.33
71149;BME280;59072;42.144;25.200;2023-04-08T04:47:23;100459.19;;;7.72;90.08
71149;BME280;59072;42.144;25.200;2023-04-08T04:49:49;100470.75;;;8.07;88.07
71149;BME280;59072;42.144;25.200;2023-04-08T04:52:15;100461.59;;;7.88;88.53
71149;BME280;59072;42.144;25.200;2023-04-08T04:54:40;100469.81;;;7.93;88.92
71149;BME280;59072;42.144;25.200;2023-04-08T04:57:05;100470.59;;;7.87;89.98
71149;BME280;59072;42.144;25.200;2023-04-08T04:59:31;100469.50;;;7.81;88.96
71149;BME280;59072;42.144;25.200;2023-04-08T05:01:56;100452.66;;;7.96;87.53
71149;BME280;59072;42.144;25.200;2023-04-08T05:04:23;100449.25;;;7.80;88.18
71149;BME280;59072;42.144;25.200;2023-04-08T05:06:48;100472.59;;;7.85;88.63
71149;BME280;59072;42.144;25.200;2023-04-08T05:09:14;100464.50;;;7.93;88.20
71149;BME280;59072;42.144;25.200;2023-04-08T05:11:40;100471.72;;;7.78;89.77
71149;BME280;59072;42.144;25.200;2023-04-08T05:14:05;100468.88;;;8.01;88.33
71149;BME280;59072;42.144;25.200;2023-04-08T05:16:32;100464.22;;;8.10;87.91
71149;BME280;59072;42.144;25.200;2023-04-08T05:18:57;100469.47;;;8.31;86.57
71149;BME280;59072;42.144;25.200;2023-04-08T05:21:22;100468.69;;;8.37;86.18
71149;BME280;59072;42.144;25.200;2023-04-08T05:23:48;100474.03;;;8.65;84.69
71149;BME280;59072;42.144;25.200;2023-04-08T05:26:17;100468.69;;;8.59;85.74
71149;BME280;59072;42.144;25.200;2023-04-08T05:28:43;100473.44;;;8.70;84.70
71149;BME280;59072;42.144;25.200;2023-04-08T05:31:08;100467.47;;;8.68;83.65
71149;BME280;59072;42.144;25.200;2023-04-08T05:33:36;100477.78;;;8.43;85.86
71149;BME280;59072;42.144;25.200;2023-04-08T05:36:01;100465.69;;;8.75;82.67
71149;BME280;59072;42.144;25.200;2023-04-08T05:38:27;100471.63;;;8.77;83.11
71149;BME280;59072;42.144;25.200;2023-04-08T05:40:52;100466.19;;;8.57;83.91
71149;BME280;59072;42.144;25.200;2023-04-08T05:43:17;100473.00;;;8.38;84.70
71149;BME280;59072;42.144;25.200;2023-04-08T05:45:43;100472.63;;;8.70;83.00
71149;BME280;59072;42.144;25.200;2023-04-08T05:48:08;100488.06;;;8.88;80.83
71149;BME280;59072;42.144;25.200;2023-04-08T05:50:34;100489.31;;;8.92;81.98
71149;BME280;59072;42.144;25.200;2023-04-08T05:53:00;100493.88;;;9.11;79.74
71149;BME280;59072;42.144;25.200;2023-04-08T05:55:25;100496.25;;;8.93;78.98
71149;BME280;59072;42.144;25.200;2023-04-08T05:57:51;100487.19;;;8.80;80.31
71149;BME280;59072;42.144;25.200;2023-04-08T06:00:16;100487.34;;;8.72;80.16
71149;BME280;59072;42.144;25.200;2023-04-08T06:02:42;100488.09;;;9.01;79.15
71149;BME280;59072;42.144;25.200;2023-04-08T06:05:07;100480.72;;;8.96;79.87
71149;BME280;59072;42.144;25.200;2023-04-08T06:07:33;100491.75;;;9.48;77.63
71149;BME280;59072;42.144;25.200;2023-04-08T06:09:58;100486.63;;;9.47;77.29
71149;BME280;59072;42.144;25.200;2023-04-08T06:12:24;100481.69;;;9.37;77.83
71149;BME280;59072;42.144;25.200;2023-04-08T06:14:53;100478.31;;;9.83;75.33
71149;BME280;59072;42.144;25.200;2023-04-08T06:17:20;100490.78;;;9.76;74.96
71149;BME280;59072;42.144;25.200;2023-04-08T06:19:45;100497.75;;;9.97;73.75
71149;BME280;59072;42.144;25.200;2023-04-08T06:22:10;100491.63;;;10.10;74.49
71149;BME280;59072;42.144;25.200;2023-04-08T06:24:36;100495.31;;;10.02;76.50
71149;BME280;59072;42.144;25.200;2023-04-08T06:27:01;100499.66;;;10.36;75.56
71149;BME280;59072;42.144;25.200;2023-04-08T06:29:27;100500.66;;;10.35;73.54
71149;BME280;59072;42.144;25.200;2023-04-08T06:31:54;100488.97;;;10.36;74.10
71149;BME280;59072;42.144;25.200;2023-04-08T06:34:20;100495.13;;;10.37;74.05
71149;BME280;59072;42.144;25.200;2023-04-08T06:36:45;100495.09;;;10.43;76.11
71149;BME280;59072;42.144;25.200;2023-04-08T06:39:11;100484.06;;;10.33;74.82
71149;BME280;59072;42.144;25.200;2023-04-08T06:41:36;100496.97;;;10.36;73.50
71149;BME280;59072;42.144;25.200;2023-04-08T06:44:02;100499.81;;;10.21;74.51
71149;BME280;59072;42.144;25.200;2023-04-08T06:46:27;100501.69;;;10.54;75.86
71149;BME280;59072;42.144;25.200;2023-04-08T06:48:52;100508.00;;;10.73;73.17
71149;BME280;59072;42.144;25.200;2023-04-08T06:51:18;100493.88;;;10.53;74.15
71149;BME280;59072;42.144;25.200;2023-04-08T06:53:43;100498.00;;;10.49;74.38
71149;BME280;59072;42.144;25.200;2023-04-08T06:56:09;100499.31;;;10.98;73.82
71149;BME280;59072;42.144;25.200;2023-04-08T06:58:35;100495.56;;;11.12;71.72
71149;BME280;59072;42.144;25.200;2023-04-08T07:01:00;100498.09;;;10.94;73.10
71149;BME280;59072;42.144;25.200;2023-04-08T07:03:27;100504.16;;;11.14;71.71
71149;BME280;59072;42.144;25.200;2023-04-08T07:05:52;100499.84;;;11.13;71.74
71149;BME280;59072;42.144;25.200;2023-04-08T07:08:18;100508.22;;;11.23;71.36
71149;BME280;59072;42.144;25.200;2023-04-08T07:10:43;100508.72;;;11.00;73.38
71149;BME280;59072;42.144;25.200;2023-04-08T07:13:09;100497.03;;;10.95;74.13
71149;BME280;59072;42.144;25.200;2023-04-08T07:15:35;100501.59;;;10.88;73.78
71149;BME280;59072;42.144;25.200;2023-04-08T07:18:01;100509.00;;;10.85;71.69
71149;BME280;59072;42.144;25.200;2023-04-08T07:20:27;100511.66;;;10.85;71.06
71149;BME280;59072;42.144;25.200;2023-04-08T07:22:52;100504.97;;;11.15;70.82
71149;BME280;59072;42.144;25.200;2023-04-08T07:25:17;100504.03;;;11.41;71.45
71149;BME280;59072;42.144;25.200;2023-04-08T07:27:43;100511.81;;;11.49;70.25
71149;BME280;59072;42.144;25.200;2023-04-08T07:30:09;100508.56;;;11.34;70.78
71149;BME280;59072;42.144;25.200;2023-04-08T07:32:34;100511.13;;;11.15;71.21
71149;BME280;59072;42.144;25.200;2023-04-08T07:35:00;100493.16;;;11.36;71.07
71149;BME280;59072;42.144;25.200;2023-04-08T07:37:26;100505.44;;;11.82;67.01
71149;BME280;59072;42.144;25.200;2023-04-08T07:39:52;100500.03;;;12.20;67.53
71149;BME280;59072;42.144;25.200;2023-04-08T07:42:17;100493.66;;;11.96;66.98
71149;BME280;59072;42.144;25.200;2023-04-08T07:44:44;100503.78;;;11.81;67.67
71149;BME280;59072;42.144;25.200;2023-04-08T07:47:10;100511.03;;;11.74;69.05
71149;BME280;59072;42.144;25.200;2023-04-08T07:49:36;100502.25;;;11.98;67.89
71149;BME280;59072;42.144;25.200;2023-04-08T07:52:02;100510.56;;;12.15;64.69
71149;BME280;59072;42.144;25.200;2023-04-08T07:54:30;100496.59;;;12.13;66.86
71149;BME280;59072;42.144;25.200;2023-04-08T07:56:55;100507.47;;;11.93;68.89
71149;BME280;59072;42.144;25.200;2023-04-08T07:59:21;100504.72;;;12.25;66.53
71149;BME280;59072;42.144;25.200;2023-04-08T08:01:47;100510.66;;;12.27;64.09
71149;BME280;59072;42.144;25.200;2023-04-08T08:04:12;100501.38;;;12.73;63.40
71149;BME280;59072;42.144;25.200;2023-04-08T08:06:38;100512.09;;;12.92;59.43
71149;BME280;59072;42.144;25.200;2023-04-08T08:09:03;100507.91;;;13.14;58.89
71149;BME280;59072;42.144;25.200;2023-04-08T08:11:29;100501.09;;;13.00;60.70
71149;BME280;59072;42.144;25.200;2023-04-08T08:13:55;100508.16;;;12.94;61.68
71149;BME280;59072;42.144;25.200;2023-04-08T08:16:21;100509.72;;;13.02;60.68
71149;BME280;59072;42.144;25.200;2023-04-08T08:18:47;100508.34;;;13.11;61.65
71149;BME280;59072;42.144;25.200;2023-04-08T08:21:12;100510.44;;;13.09;59.26
71149;BME280;59072;42.144;25.200;2023-04-08T08:23:37;100502.38;;;13.27;59.54
71149;BME280;59072;42.144;25.200;2023-04-08T08:26:05;100513.69;;;13.48;56.07
71149;BME280;59072;42.144;25.200;2023-04-08T08:28:32;100500.59;;;13.40;54.82
71149;BME280;59072;42.144;25.200;2023-04-08T08:30:57;100511.47;;;13.87;53.82
71149;BME280;59072;42.144;25.200;2023-04-08T08:33:24;100511.88;;;13.60;53.97
71149;BME280;59072;42.144;25.200;2023-04-08T08:35:50;100508.59;;;13.58;53.70
71149;BME280;59072;42.144;25.200;2023-04-08T08:38:16;100511.22;;;13.77;55.09
71149;BME280;59072;42.144;25.200;2023-04-08T08:40:42;100506.63;;;13.96;52.46
71149;BME280;59072;42.144;25.200;2023-04-08T08:43:09;100503.09;;;13.95;56.21
71149;BME280;59072;42.144;25.200;2023-04-08T08:45:44;100504.75;;;13.96;55.93
71149;BME280;59072;42.144;25.200;2023-04-08T08:48:09;100507.94;;;14.29;56.82
71149;BME280;59072;42.144;25.200;2023-04-08T08:50:35;100505.59;;;14.09;58.87
71149;BME280;59072;42.144;25.200;2023-04-08T08:53:01;100498.81;;;14.06;58.82
71149;BME280;59072;42.144;25.200;2023-04-08T08:55:29;100494.63;;;14.10;57.00
71149;BME280;59072;42.144;25.200;2023-04-08T08:57:55;100491.50;;;14.37;57.51
71149;BME280;59072;42.144;25.200;2023-04-08T09:00:31;100493.94;;;14.85;56.55
71149;BME280;59072;42.144;25.200;2023-04-08T09:03:15;100499.03;;;14.99;55.15
71149;BME280;59072;42.144;25.200;2023-04-08T09:05:51;100474.19;;;14.92;56.27
71149;BME280;59072;42.144;25.200;2023-04-08T09:08:36;100497.22;;;14.76;54.41
71149;BME280;59072;42.144;25.200;2023-04-08T09:11:13;100486.91;;;14.14;56.58
71149;BME280;59072;42.144;25.200;2023-04-08T09:13:39;100498.72;;;14.83;56.79
71149;BME280;59072;42.144;25.200;2023-04-08T09:16:07;100484.72;;;14.81;55.96
71149;BME280;59072;42.144;25.200;2023-04-08T09:18:34;100501.19;;;14.73;54.30
71149;BME280;59072;42.144;25.200;2023-04-08T09:21:00;100504.81;;;14.67;56.03
71149;BME280;59072;42.144;25.200;2023-04-08T09:23:48;100491.53;;;15.13;52.69
71149;BME280;59072;42.144;25.200;2023-04-08T09:26:20;100494.94;;;15.08;54.39
71149;BME280;59072;42.144;25.200;2023-04-08T09:29:07;100482.84;;;15.22;55.54
71149;BME280;59072;42.144;25.200;2023-04-08T09:31:39;100492.50;;;14.95;52.78
71149;BME280;59072;42.144;25.200;2023-04-08T09:34:16;100495.25;;;15.40;47.78
71149;BME280;59072;42.144;25.200;2023-04-08T09:36:43;100486.09;;;15.82;51.92
71149;BME280;59072;42.144;25.200;2023-04-08T09:39:10;100490.69;;;15.70;52.12
71149;BME280;59072;42.144;25.200;2023-04-08T09:41:37;100466.44;;;15.36;52.25
71149;BME280;59072;42.144;25.200;2023-04-08T09:44:05;100483.09;;;15.66;50.91
71149;BME280;59072;42.144;25.200;2023-04-08T09:46:35;100458.25;;;15.59;51.02
71149;BME280;59072;42.144;25.200;2023-04-08T09:49:11;100483.84;;;15.62;50.08
71149;BME280;59072;42.144;25.200;2023-04-08T09:52:05;100488.03;;;15.41;50.33
71149;BME280;59072;42.144;25.200;2023-04-08T10:00:18;100479.56;;;16.12;46.78
71149;BME280;59072;42.144;25.200;2023-04-08T10:05:12;100483.34;;;15.94;48.18
71149;BME280;59072;42.144;25.200;2023-04-08T10:07:40;100480.16;;;15.97;47.11
71149;BME280;59072;42.144;25.200;2023-04-08T10:10:06;100468.75;;;16.06;48.98
71149;BME280;59072;42.144;25.200;2023-04-08T10:12:35;100453.81;;;16.55;46.76
71149;BME280;59072;42.144;25.200;2023-04-08T10:25:36;100450.84;;;17.17;43.51
71149;BME280;59072;42.144;25.200;2023-04-08T10:33:15;100453.31;;;18.11;46.19
71149;BME280;59072;42.144;25.200;2023-04-08T10:36:08;100452.63;;;16.84;46.86
71149;BME280;59072;42.144;25.200;2023-04-08T10:38:34;100449.59;;;17.30;46.63
71149;BME280;59072;42.144;25.200;2023-04-08T10:41:00;100438.09;;;17.99;44.13
71149;BME280;59072;42.144;25.200;2023-04-08T10:43:31;100438.72;;;18.54;45.70
71149;BME280;59072;42.144;25.200;2023-04-08T10:45:57;100450.00;;;17.98;44.35
71149;BME280;59072;42.144;25.200;2023-04-08T10:48:23;100439.09;;;18.25;44.02
71149;BME280;59072;42.144;25.200;2023-04-08T10:53:31;100439.31;;;18.66;42.22
71149;BME280;59072;42.144;25.200;2023-04-08T10:56:11;100433.50;;;18.42;44.35
71149;BME280;59072;42.144;25.200;2023-04-08T10:58:53;100432.56;;;18.69;42.83
71149;BME280;59072;42.144;25.200;2023-04-08T11:01:20;100435.22;;;17.79;44.00
71149;BME280;59072;42.144;25.200;2023-04-08T11:03:47;100426.25;;;18.43;42.71
71149;BME280;59072;42.144;25.200;2023-04-08T11:06:13;100423.84;;;18.52;43.16
71149;BME280;59072;42.144;25.200;2023-04-08T11:08:39;100421.66;;;18.48;40.44
71149;BME280;59072;42.144;25.200;2023-04-08T11:11:06;100431.59;;;17.90;40.40
71149;BME280;59072;42.144;25.200;2023-04-08T11:13:34;100401.03;;;17.84;39.41
71149;BME280;59072;42.144;25.200;2023-04-08T11:16:01;100408.91;;;19.02;39.91
71149;BME280;59072;42.144;25.200;2023-04-08T11:18:29;100398.72;;;19.60;38.00
71149;BME280;59072;42.144;25.200;2023-04-08T11:20:56;100393.28;;;19.19;37.74
71149;BME280;59072;42.144;25.200;2023-04-08T11:23:23;100403.75;;;18.85;40.15
71149;BME280;59072;42.144;25.200;2023-04-08T11:25:49;100405.81;;;17.77;40.53
71149;BME280;59072;42.144;25.200;2023-04-08T11:28:15;100397.84;;;17.55;40.10
71149;BME280;59072;42.144;25.200;2023-04-08T11:30:42;100393.31;;;18.46;38.05
71149;BME280;59072;42.144;25.200;2023-04-08T11:33:08;100403.06;;;18.52;38.88
71149;BME280;59072;42.144;25.200;2023-04-08T11:35:33;100384.41;;;18.45;38.38
71149;BME280;59072;42.144;25.200;2023-04-08T11:37:59;100396.31;;;18.55;39.05
71149;BME280;59072;42.144;25.200;2023-04-08T11:40:25;100397.34;;;18.48;39.21
71149;BME280;59072;42.144;25.200;2023-04-08T11:42:51;100390.03;;;19.22;35.42
71149;BME280;59072;42.144;25.200;2023-04-08T11:45:20;100378.56;;;20.38;33.93
71149;BME280;59072;42.144;25.200;2023-04-08T11:47:47;100388.94;;;20.16;34.81
71149;BME280;59072;42.144;25.200;2023-04-08T11:50:21;100384.66;;;19.89;37.40
71149;BME280;59072;42.144;25.200;2023-04-08T11:52:49;100382.97;;;19.01;39.83
71149;BME280;59072;42.144;25.200;2023-04-08T11:55:41;100375.41;;;18.98;39.00
71149;BME280;59072;42.144;25.200;2023-04-08T11:58:06;100358.81;;;18.68;39.23
71149;BME280;59072;42.144;25.200;2023-04-08T12:00:32;100362.03;;;18.55;39.73
71149;BME280;59072;42.144;25.200;2023-04-08T12:02:58;100355.81;;;18.60;39.99
71149;BME280;59072;42.144;25.200;2023-04-08T12:05:23;100360.03;;;19.09;39.65
71149;BME280;59072;42.144;25.200;2023-04-08T12:07:49;100356.38;;;18.67;39.52
71149;BME280;59072;42.144;25.200;2023-04-08T12:10:14;100353.06;;;18.39;39.24
71149;BME280;59072;42.144;25.200;2023-04-08T12:12:40;100353.59;;;18.41;39.55
71149;BME280;59072;42.144;25.200;2023-04-08T12:15:07;100341.22;;;18.56;40.15
71149;BME280;59072;42.144;25.200;2023-04-08T12:17:33;100348.50;;;18.45;39.21
71149;BME280;59072;42.144;25.200;2023-04-08T12:19:58;100346.84;;;18.39;39.40
71149;BME280;59072;42.144;25.200;2023-04-08T12:22:24;100348.75;;;18.48;39.17
71149;BME280;59072;42.144;25.200;2023-04-08T12:24:50;100330.97;;;17.95;41.26
71149;BME280;59072;42.144;25.200;2023-04-08T12:27:15;100330.56;;;17.81;41.51
71149;BME280;59072;42.144;25.200;2023-04-08T12:29:41;100337.19;;;18.58;39.93
71149;BME280;59072;42.144;25.200;2023-04-08T12:32:07;100320.41;;;18.56;39.83
71149;BME280;59072;42.144;25.200;2023-04-08T12:34:33;100326.75;;;19.59;37.80
71149;BME280;59072;42.144;25.200;2023-04-08T12:36:59;100314.88;;;19.50;36.71
71149;BME280;59072;42.144;25.200;2023-04-08T12:39:24;100315.34;;;20.03;40.11
71149;BME280;59072;42.144;25.200;2023-04-08T12:41:50;100322.41;;;21.04;35.96
71149;BME280;59072;42.144;25.200;2023-04-08T12:44:15;100316.53;;;20.92;34.80
71149;BME280;59072;42.144;25.200;2023-04-08T12:46:41;100306.59;;;20.27;36.31
71149;BME280;59072;42.144;25.200;2023-04-08T12:49:06;100319.63;;;20.15;35.75
71149;BME280;59072;42.144;25.200;2023-04-08T12:51:33;100315.41;;;19.52;36.37
71149;BME280;59072;42.144;25.200;2023-04-08T12:53:58;100304.88;;;18.84;38.03
71149;BME280;59072;42.144;25.200;2023-04-08T12:56:25;100297.34;;;18.18;39.08
71149;BME280;59072;42.144;25.200;2023-04-08T12:58:51;100286.28;;;18.24;38.46
71149;BME280;59072;42.144;25.200;2023-04-08T13:01:16;100306.47;;;18.06;38.83
71149;BME280;59072;42.144;25.200;2023-04-08T13:03:42;100300.81;;;17.65;39.93
71149;BME280;59072;42.144;25.200;2023-04-08T13:06:07;100294.94;;;17.79;38.38
71149;BME280;59072;42.144;25.200;2023-04-08T13:08:33;100292.75;;;17.71;37.79
71149;BME280;59072;42.144;25.200;2023-04-08T13:10:58;100293.97;;;17.47;38.37
71149;BME280;59072;42.144;25.200;2023-04-08T13:13:23;100274.47;;;17.35;40.69